sensor_id;sensor_type;location;lat;lon;timestamp;P1;durP1;ratioP1;P2;durP2;ratioP2
74371;SDS011;62885;51.374;6.170;2022-08-19T00:03:17;23.23;;;16.85;;
74371;SDS011;62885;51.374;6.170;2022-08-19T00:05:42;22.58;;;17.42;;
74371;SDS011;62885;51.374;6.170;2022-08-19T00:08:08;23.80;;;17.15;;
74371;SDS011;62885;51.374;6.170;2022-08-19T00:10:33;22.85;;;15.88;;
74371;SDS011;62885;51.374;6.170;2022-08-19T00:12:59;22.40;;;16.45;;
74371;SDS011;62885;51.374;6.170;2022-08-19T00:15:24;23.15;;;16.48;;
74371;SDS011;62885;51.374;6.170;2022-08-19T00:17:50;23.10;;;17.08;;
74371;SDS011;62885;51.374;6.170;2022-08-19T00:20:17;21.50;;;17.20;;
74371;SDS011;62885;51.374;6.170;2022-08-19T00:22:45;25.08;;;17.20;;
74371;SDS011;62885;51.374;6.170;2022-08-19T00:25:11;23.58;;;17.63;;
74371;SDS011;62885;51.374;6.170;2022-08-19T00:27:37;24.38;;;17.80;;
74371;SDS011;62885;51.374;6.170;2022-08-19T00:30:04;22.95;;;17.52;;
74371;SDS011;62885;51.374;6.170;2022-08-19T00:32:31;23.30;;;17.38;;
74371;SDS011;62885;51.374;6.170;2022-08-19T00:34:57;21.05;;;17.13;;
74371;SDS011;62885;51.374;6.170;2022-08-19T00:37:23;20.15;;;15.95;;
74371;SDS011;62885;51.374;6.170;2022-08-19T00:39:51;21.30;;;16.08;;
74371;SDS011;62885;51.374;6.170;2022-08-19T00:42:18;19.02;;;14.32;;
74371;SDS011;62885;51.374;6.170;2022-08-19T00:44:45;20.75;;;16.23;;
74371;SDS011;62885;51.374;6.170;2022-08-19T00:47:11;21.30;;;16.55;;
74371;SDS011;62885;51.374;6.170;2022-08-19T00:49:38;20.92;;;15.50;;
74371;SDS011;62885;51.374;6.170;2022-08-19T00:52:18;19.05;;;15.93;;
74371;SDS011;62885;51.374;6.170;2022-08-19T00:54:47;21.92;;;17.17;;
74371;SDS011;62885;51.374;6.170;2022-08-19T00:57:15;23.25;;;17.45;;
74371;SDS011;62885;51.374;6.170;2022-08-19T00:59:44;21.55;;;16.42;;
74371;SDS011;62885;51.374;6.170;2022-08-19T01:02:13;22.67;;;17.00;;
74371;SDS011;62885;51.374;6.170;2022-08-19T01:04:40;22.05;;;17.58;;
74371;SDS011;62885;51.374;6.170;2022-08-19T01:07:05;19.48;;;15.85;;
74371;SDS011;62885;51.374;6.170;2022-08-19T01:09:32;22.80;;;16.73;;
74371;SDS011;62885;51.374;6.170;2022-08-19T01:11:57;21.13;;;15.82;;
74371;SDS011;62885;51.374;6.170;2022-08-19T01:14:23;23.27;;;17.98;;
74371;SDS011;62885;51.374;6.170;2022-08-19T01:16:49;23.27;;;17.95;;
74371;SDS011;62885;51.374;6.170;2022-08-19T01:19:21;24.63;;;17.73;;
74371;SDS011;62885;51.374;6.170;2022-08-19T01:22:02;22.27;;;15.32;;
74371;SDS011;62885;51.374;6.170;2022-08-19T01:24:33;22.15;;;18.20;;
74371;SDS011;62885;51.374;6.170;2022-08-19T01:26:59;24.05;;;17.98;;
74371;SDS011;62885;51.374;6.170;2022-08-19T01:29:28;23.38;;;16.73;;
74371;SDS011;62885;51.374;6.170;2022-08-19T01:31:54;22.08;;;18.05;;
74371;SDS011;62885;51.374;6.170;2022-08-19T01:34:19;24.23;;;17.98;;
74371;SDS011;62885;51.374;6.170;2022-08-19T01:36:45;25.60;;;18.90;;
74371;SDS011;62885;51.374;6.170;2022-08-19T01:39:13;24.42;;;18.55;;
74371;SDS011;62885;51.374;6.170;2022-08-19T01:41:41;23.98;;;19.85;;
74371;SDS011;62885;51.374;6.170;2022-08-19T01:44:07;25.15;;;18.50;;
74371;SDS011;62885;51.374;6.170;2022-08-19T01:46:34;23.58;;;16.88;;
74371;SDS011;62885;51.374;6.170;2022-08-19T01:49:00;22.67;;;16.48;;
74371;SDS011;62885;51.374;6.170;2022-08-19T01:51:27;24.45;;;18.27;;
74371;SDS011;62885;51.374;6.170;2022-08-19T01:53:52;25.77;;;19.65;;
74371;SDS011;62885;51.374;6.170;2022-08-19T01:56:18;22.27;;;17.83;;
74371;SDS011;62885;51.374;6.170;2022-08-19T01:58:46;23.38;;;18.67;;
74371;SDS011;62885;51.374;6.170;2022-08-19T02:01:18;23.52;;;17.52;;
74371;SDS011;62885;51.374;6.170;2022-08-19T02:03:44;22.85;;;17.42;;
74371;SDS011;62885;51.374;6.170;2022-08-19T02:06:10;24.23;;;17.73;;
74371;SDS011;62885;51.374;6.170;2022-08-19T02:08:36;23.65;;;17.35;;
74371;SDS011;62885;51.374;6.170;2022-08-19T02:11:04;20.95;;;16.23;;
74371;SDS011;62885;51.374;6.170;2022-08-19T02:13:29;24.10;;;18.50;;
74371;SDS011;62885;51.374;6.170;2022-08-19T02:15:55;26.25;;;19.35;;
74371;SDS011;62885;51.374;6.170;2022-08-19T02:18:20;23.25;;;17.35;;
74371;SDS011;62885;51.374;6.170;2022-08-19T02:20:46;25.15;;;19.00;;
74371;SDS011;62885;51.374;6.170;2022-08-19T02:23:13;29.33;;;18.77;;
74371;SDS011;62885;51.374;6.170;2022-08-19T02:25:43;23.90;;;18.45;;
74371;SDS011;62885;51.374;6.170;2022-08-19T02:28:10;26.65;;;20.73;;
74371;SDS011;62885;51.374;6.170;2022-08-19T02:30:36;26.95;;;20.65;;
74371;SDS011;62885;51.374;6.170;2022-08-19T02:33:03;27.83;;;20.50;;
74371;SDS011;62885;51.374;6.170;2022-08-19T02:35:28;28.73;;;21.38;;
74371;SDS011;62885;51.374;6.170;2022-08-19T02:37:53;28.87;;;22.30;;
74371;SDS011;62885;51.374;6.170;2022-08-19T02:40:37;30.00;;;21.70;;
74371;SDS011;62885;51.374;6.170;2022-08-19T02:43:04;29.88;;;22.45;;
74371;SDS011;62885;51.374;6.170;2022-08-19T02:45:35;28.30;;;21.25;;
74371;SDS011;62885;51.374;6.170;2022-08-19T02:48:03;27.48;;;21.85;;
74371;SDS011;62885;51.374;6.170;2022-08-19T02:50:29;28.42;;;22.05;;
74371;SDS011;62885;51.374;6.170;2022-08-19T02:52:55;28.30;;;22.08;;
74371;SDS011;62885;51.374;6.170;2022-08-19T02:55:21;28.08;;;22.83;;
74371;SDS011;62885;51.374;6.170;2022-08-19T02:57:46;29.58;;;21.63;;
74371;SDS011;62885;51.374;6.170;2022-08-19T03:00:12;29.48;;;22.95;;
74371;SDS011;62885;51.374;6.170;2022-08-19T03:02:38;27.75;;;21.23;;
74371;SDS011;62885;51.374;6.170;2022-08-19T03:05:07;28.13;;;22.20;;
74371;SDS011;62885;51.374;6.170;2022-08-19T03:07:34;28.08;;;20.95;;
74371;SDS011;62885;51.374;6.170;2022-08-19T03:10:00;28.77;;;20.60;;
74371;SDS011;62885;51.374;6.170;2022-08-19T03:12:26;25.88;;;20.58;;
74371;SDS011;62885;51.374;6.170;2022-08-19T03:14:51;27.20;;;20.02;;
74371;SDS011;62885;51.374;6.170;2022-08-19T03:17:17;27.25;;;20.85;;
74371;SDS011;62885;51.374;6.170;2022-08-19T03:19:43;29.17;;;21.88;;
74371;SDS011;62885;51.374;6.170;2022-08-19T03:22:08;27.40;;;20.65;;
74371;SDS011;62885;51.374;6.170;2022-08-19T03:24:34;29.05;;;21.98;;
74371;SDS011;62885;51.374;6.170;2022-08-19T03:27:00;30.38;;;22.02;;
74371;SDS011;62885;51.374;6.170;2022-08-19T03:29:27;26.83;;;19.05;;
74371;SDS011;62885;51.374;6.170;2022-08-19T03:31:53;28.77;;;21.42;;
74371;SDS011;62885;51.374;6.170;2022-08-19T03:34:20;30.33;;;23.65;;
74371;SDS011;62885;51.374;6.170;2022-08-19T03:36:54;26.50;;;20.13;;
74371;SDS011;62885;51.374;6.170;2022-08-19T03:39:22;28.05;;;22.08;;
74371;SDS011;62885;51.374;6.170;2022-08-19T03:41:49;27.20;;;21.45;;
74371;SDS011;62885;51.374;6.170;2022-08-19T03:44:16;27.33;;;20.55;;
74371;SDS011;62885;51.374;6.170;2022-08-19T03:46:45;26.67;;;20.08;;
74371;SDS011;62885;51.374;6.170;2022-08-19T03:49:12;28.17;;;20.67;;
74371;SDS011;62885;51.374;6.170;2022-08-19T03:51:38;28.23;;;23.02;;
74371;SDS011;62885;51.374;6.170;2022-08-19T03:54:05;27.48;;;20.80;;
74371;SDS011;62885;51.374;6.170;2022-08-19T03:56:34;31.92;;;22.73;;
74371;SDS011;62885;51.374;6.170;2022-08-19T03:59:01;25.30;;;19.70;;
74371;SDS011;62885;51.374;6.170;2022-08-19T04:01:27;26.42;;;19.58;;
74371;SDS011;62885;51.374;6.170;2022-08-19T04:03:54;25.98;;;19.63;;
74371;SDS011;62885;51.374;6.170;2022-08-19T04:08:48;27.25;;;19.75;;
74371;SDS011;62885;51.374;6.170;2022-08-19T04:11:16;29.20;;;21.42;;
74371;SDS011;62885;51.374;6.170;2022-08-19T04:13:48;26.27;;;19.15;;
74371;SDS011;62885;51.374;6.170;2022-08-19T04:16:16;28.23;;;20.35;;
74371;SDS011;62885;51.374;6.170;2022-08-19T04:18:43;25.02;;;18.95;;
74371;SDS011;62885;51.374;6.170;2022-08-19T04:21:08;30.20;;;20.33;;
74371;SDS011;62885;51.374;6.170;2022-08-19T04:23:41;29.63;;;20.80;;
74371;SDS011;62885;51.374;6.170;2022-08-19T04:26:07;28.40;;;20.10;;
74371;SDS011;62885;51.374;6.170;2022-08-19T04:28:37;25.13;;;19.48;;
74371;SDS011;62885;51.374;6.170;2022-08-19T04:31:02;27.58;;;19.35;;
74371;SDS011;62885;51.374;6.170;2022-08-19T04:33:30;26.17;;;19.77;;
74371;SDS011;62885;51.374;6.170;2022-08-19T04:35:56;28.65;;;18.98;;
74371;SDS011;62885;51.374;6.170;2022-08-19T04:38:23;27.17;;;19.98;;
74371;SDS011;62885;51.374;6.170;2022-08-19T04:40:49;27.10;;;18.83;;
74371;SDS011;62885;51.374;6.170;2022-08-19T04:43:35;29.88;;;18.83;;
74371;SDS011;62885;51.374;6.170;2022-08-19T04:46:08;27.15;;;19.15;;
74371;SDS011;62885;51.374;6.170;2022-08-19T04:48:36;24.77;;;17.83;;
74371;SDS011;62885;51.374;6.170;2022-08-19T04:51:06;26.55;;;18.48;;
74371;SDS011;62885;51.374;6.170;2022-08-19T04:53:35;27.73;;;19.13;;
74371;SDS011;62885;51.374;6.170;2022-08-19T04:56:06;26.05;;;18.40;;
74371;SDS011;62885;51.374;6.170;2022-08-19T04:58:34;25.95;;;19.38;;
74371;SDS011;62885;51.374;6.170;2022-08-19T05:01:01;26.35;;;18.50;;
74371;SDS011;62885;51.374;6.170;2022-08-19T05:03:26;28.30;;;19.65;;
74371;SDS011;62885;51.374;6.170;2022-08-19T05:05:52;24.55;;;17.83;;
74371;SDS011;62885;51.374;6.170;2022-08-19T05:08:19;25.40;;;18.20;;
74371;SDS011;62885;51.374;6.170;2022-08-19T05:10:47;24.13;;;17.10;;
74371;SDS011;62885;51.374;6.170;2022-08-19T05:13:14;26.63;;;19.80;;
74371;SDS011;62885;51.374;6.170;2022-08-19T05:15:41;26.50;;;20.30;;
74371;SDS011;62885;51.374;6.170;2022-08-19T05:18:07;24.30;;;17.73;;
74371;SDS011;62885;51.374;6.170;2022-08-19T05:20:51;28.08;;;19.42;;
74371;SDS011;62885;51.374;6.170;2022-08-19T05:23:34;28.20;;;20.13;;
74371;SDS011;62885;51.374;6.170;2022-08-19T05:26:00;28.90;;;19.50;;
74371;SDS011;62885;51.374;6.170;2022-08-19T05:28:25;24.85;;;18.77;;
74371;SDS011;62885;51.374;6.170;2022-08-19T05:30:51;28.77;;;19.98;;
74371;SDS011;62885;51.374;6.170;2022-08-19T05:33:17;24.80;;;19.73;;
74371;SDS011;62885;51.374;6.170;2022-08-19T05:35:42;28.60;;;20.52;;
74371;SDS011;62885;51.374;6.170;2022-08-19T05:38:09;27.75;;;19.88;;
74371;SDS011;62885;51.374;6.170;2022-08-19T05:40:36;29.25;;;21.50;;
74371;SDS011;62885;51.374;6.170;2022-08-19T05:43:04;29.00;;;20.35;;
74371;SDS011;62885;51.374;6.170;2022-08-19T05:45:31;27.27;;;19.92;;
74371;SDS011;62885;51.374;6.170;2022-08-19T05:47:56;27.58;;;19.80;;
74371;SDS011;62885;51.374;6.170;2022-08-19T05:50:22;30.10;;;20.52;;
74371;SDS011;62885;51.374;6.170;2022-08-19T05:52:47;27.98;;;19.88;;
74371;SDS011;62885;51.374;6.170;2022-08-19T05:55:13;29.58;;;21.20;;
74371;SDS011;62885;51.374;6.170;2022-08-19T05:57:39;30.48;;;22.00;;
74371;SDS011;62885;51.374;6.170;2022-08-19T06:00:05;32.00;;;22.58;;
74371;SDS011;62885;51.374;6.170;2022-08-19T06:02:34;29.63;;;22.33;;
74371;SDS011;62885;51.374;6.170;2022-08-19T06:05:00;35.22;;;23.50;;
74371;SDS011;62885;51.374;6.170;2022-08-19T06:07:27;28.80;;;21.90;;
74371;SDS011;62885;51.374;6.170;2022-08-19T06:09:53;34.97;;;23.02;;
74371;SDS011;62885;51.374;6.170;2022-08-19T06:12:20;34.58;;;23.27;;
74371;SDS011;62885;51.374;6.170;2022-08-19T06:14:56;31.45;;;23.17;;
74371;SDS011;62885;51.374;6.170;2022-08-19T06:17:22;30.23;;;22.27;;
74371;SDS011;62885;51.374;6.170;2022-08-19T06:19:50;33.22;;;23.15;;
74371;SDS011;62885;51.374;6.170;2022-08-19T06:22:15;33.85;;;24.17;;
74371;SDS011;62885;51.374;6.170;2022-08-19T06:24:41;32.65;;;22.95;;
74371;SDS011;62885;51.374;6.170;2022-08-19T06:27:06;30.20;;;23.17;;
74371;SDS011;62885;51.374;6.170;2022-08-19T06:29:32;32.10;;;22.43;;
74371;SDS011;62885;51.374;6.170;2022-08-19T06:31:59;34.13;;;23.08;;
74371;SDS011;62885;51.374;6.170;2022-08-19T06:34:27;36.10;;;25.20;;
74371;SDS011;62885;51.374;6.170;2022-08-19T06:36:54;35.28;;;23.73;;
74371;SDS011;62885;51.374;6.170;2022-08-19T06:39:25;34.63;;;23.73;;
74371;SDS011;62885;51.374;6.170;2022-08-19T06:41:54;35.80;;;24.35;;
74371;SDS011;62885;51.374;6.170;2022-08-19T06:44:23;35.35;;;24.50;;
74371;SDS011;62885;51.374;6.170;2022-08-19T06:46:51;38.17;;;25.33;;
74371;SDS011;62885;51.374;6.170;2022-08-19T06:49:17;35.83;;;24.27;;
74371;SDS011;62885;51.374;6.170;2022-08-19T06:51:44;35.13;;;23.63;;
74371;SDS011;62885;51.374;6.170;2022-08-19T06:54:14;35.95;;;24.10;;
74371;SDS011;62885;51.374;6.170;2022-08-19T06:56:41;35.75;;;23.20;;
74371;SDS011;62885;51.374;6.170;2022-08-19T06:59:13;39.50;;;23.98;;
74371;SDS011;62885;51.374;6.170;2022-08-19T07:01:43;35.20;;;22.52;;
74371;SDS011;62885;51.374;6.170;2022-08-19T07:04:14;38.00;;;24.33;;
74371;SDS011;62885;51.374;6.170;2022-08-19T07:06:42;36.75;;;22.83;;
74371;SDS011;62885;51.374;6.170;2022-08-19T07:09:08;37.10;;;22.92;;
74371;SDS011;62885;51.374;6.170;2022-08-19T07:11:35;36.08;;;21.75;;
74371;SDS011;62885;51.374;6.170;2022-08-19T07:14:01;40.40;;;23.42;;
74371;SDS011;62885;51.374;6.170;2022-08-19T07:16:27;35.85;;;21.23;;
74371;SDS011;62885;51.374;6.170;2022-08-19T07:18:53;39.20;;;22.17;;
74371;SDS011;62885;51.374;6.170;2022-08-19T07:21:23;37.00;;;21.73;;
74371;SDS011;62885;51.374;6.170;2022-08-19T07:23:54;38.22;;;23.42;;
74371;SDS011;62885;51.374;6.170;2022-08-19T07:26:22;38.90;;;22.27;;
74371;SDS011;62885;51.374;6.170;2022-08-19T07:28:53;35.88;;;22.67;;
74371;SDS011;62885;51.374;6.170;2022-08-19T07:31:20;43.88;;;25.77;;
74371;SDS011;62885;51.374;6.170;2022-08-19T07:33:48;41.00;;;25.20;;
74371;SDS011;62885;51.374;6.170;2022-08-19T07:36:15;41.58;;;25.08;;
74371;SDS011;62885;51.374;6.170;2022-08-19T07:38:44;42.33;;;23.85;;
74371;SDS011;62885;51.374;6.170;2022-08-19T07:41:14;38.85;;;25.35;;
74371;SDS011;62885;51.374;6.170;2022-08-19T07:43:43;37.42;;;24.52;;
74371;SDS011;62885;51.374;6.170;2022-08-19T07:46:09;36.08;;;22.77;;
74371;SDS011;62885;51.374;6.170;2022-08-19T07:48:35;40.53;;;25.58;;
74371;SDS011;62885;51.374;6.170;2022-08-19T07:51:02;38.08;;;25.02;;
74371;SDS011;62885;51.374;6.170;2022-08-19T07:53:30;37.83;;;23.52;;
74371;SDS011;62885;51.374;6.170;2022-08-19T07:55:57;36.65;;;22.92;;
74371;SDS011;62885;51.374;6.170;2022-08-19T07:58:26;36.55;;;23.95;;
74371;SDS011;62885;51.374;6.170;2022-08-19T08:00:52;41.65;;;24.48;;
74371;SDS011;62885;51.374;6.170;2022-08-19T08:03:19;35.33;;;22.85;;
74371;SDS011;62885;51.374;6.170;2022-08-19T08:06:06;36.20;;;23.85;;
74371;SDS011;62885;51.374;6.170;2022-08-19T08:08:51;36.92;;;23.52;;
74371;SDS011;62885;51.374;6.170;2022-08-19T08:11:35;37.30;;;23.85;;
74371;SDS011;62885;51.374;6.170;2022-08-19T08:14:00;35.28;;;23.40;;
74371;SDS011;62885;51.374;6.170;2022-08-19T08:16:26;37.65;;;23.90;;
74371;SDS011;62885;51.374;6.170;2022-08-19T08:18:54;38.40;;;24.65;;
74371;SDS011;62885;51.374;6.170;2022-08-19T08:21:20;37.35;;;22.58;;
74371;SDS011;62885;51.374;6.170;2022-08-19T08:23:45;36.88;;;23.20;;
74371;SDS011;62885;51.374;6.170;2022-08-19T08:26:10;33.83;;;21.75;;
74371;SDS011;62885;51.374;6.170;2022-08-19T08:28:39;32.83;;;21.58;;
74371;SDS011;62885;51.374;6.170;2022-08-19T08:31:04;31.42;;;19.75;;
74371;SDS011;62885;51.374;6.170;2022-08-19T08:33:30;34.22;;;20.80;;
74371;SDS011;62885;51.374;6.170;2022-08-19T08:35:55;32.30;;;21.05;;
74371;SDS011;62885;51.374;6.170;2022-08-19T08:38:21;35.95;;;21.42;;
74371;SDS011;62885;51.374;6.170;2022-08-19T08:40:49;38.70;;;20.98;;
74371;SDS011;62885;51.374;6.170;2022-08-19T08:43:28;31.48;;;20.80;;
74371;SDS011;62885;51.374;6.170;2022-08-19T08:48:49;30.27;;;19.92;;
74371;SDS011;62885;51.374;6.170;2022-08-19T08:51:20;30.48;;;19.95;;
74371;SDS011;62885;51.374;6.170;2022-08-19T08:53:57;27.80;;;17.45;;
74371;SDS011;62885;51.374;6.170;2022-08-19T08:56:24;31.27;;;17.65;;
74371;SDS011;62885;51.374;6.170;2022-08-19T08:58:58;24.67;;;16.67;;
74371;SDS011;62885;51.374;6.170;2022-08-19T09:01:26;27.25;;;16.38;;
74371;SDS011;62885;51.374;6.170;2022-08-19T09:03:52;22.92;;;14.65;;
74371;SDS011;62885;51.374;6.170;2022-08-19T09:16:49;23.10;;;13.48;;
74371;SDS011;62885;51.374;6.170;2022-08-19T09:19:16;22.92;;;14.07;;
74371;SDS011;62885;51.374;6.170;2022-08-19T09:21:42;22.88;;;13.50;;
74371;SDS011;62885;51.374;6.170;2022-08-19T09:24:07;22.30;;;14.15;;
74371;SDS011;62885;51.374;6.170;2022-08-19T09:26:33;23.20;;;13.75;;
74371;SDS011;62885;51.374;6.170;2022-08-19T09:28:59;18.75;;;12.75;;
74371;SDS011;62885;51.374;6.170;2022-08-19T09:31:26;20.88;;;12.80;;
74371;SDS011;62885;51.374;6.170;2022-08-19T09:33:57;20.58;;;12.50;;
74371;SDS011;62885;51.374;6.170;2022-08-19T09:36:24;20.70;;;11.68;;
74371;SDS011;62885;51.374;6.170;2022-08-19T09:38:53;19.90;;;12.32;;
74371;SDS011;62885;51.374;6.170;2022-08-19T09:41:21;20.35;;;12.70;;
74371;SDS011;62885;51.374;6.170;2022-08-19T09:43:49;21.35;;;12.32;;
74371;SDS011;62885;51.374;6.170;2022-08-19T09:46:21;20.35;;;12.75;;
74371;SDS011;62885;51.374;6.170;2022-08-19T09:48:48;19.33;;;12.30;;
74371;SDS011;62885;51.374;6.170;2022-08-19T09:51:18;18.63;;;11.50;;
74371;SDS011;62885;51.374;6.170;2022-08-19T09:53:46;20.95;;;10.95;;
74371;SDS011;62885;51.374;6.170;2022-08-19T09:56:15;19.92;;;12.07;;
74371;SDS011;62885;51.374;6.170;2022-08-19T09:58:41;18.65;;;11.70;;
74371;SDS011;62885;51.374;6.170;2022-08-19T10:01:07;17.98;;;11.55;;
74371;SDS011;62885;51.374;6.170;2022-08-19T10:03:33;18.98;;;11.32;;
74371;SDS011;62885;51.374;6.170;2022-08-19T10:06:01;18.35;;;11.40;;
74371;SDS011;62885;51.374;6.170;2022-08-19T10:08:30;17.88;;;11.32;;
74371;SDS011;62885;51.374;6.170;2022-08-19T10:10:58;15.88;;;9.63;;
74371;SDS011;62885;51.374;6.170;2022-08-19T10:13:24;14.45;;;9.32;;
74371;SDS011;62885;51.374;6.170;2022-08-19T10:15:52;16.90;;;9.05;;
74371;SDS011;62885;51.374;6.170;2022-08-19T10:18:20;15.80;;;10.20;;
74371;SDS011;62885;51.374;6.170;2022-08-19T10:20:47;14.50;;;8.68;;
74371;SDS011;62885;51.374;6.170;2022-08-19T10:23:14;13.18;;;8.48;;
74371;SDS011;62885;51.374;6.170;2022-08-19T10:25:40;14.15;;;8.95;;
74371;SDS011;62885;51.374;6.170;2022-08-19T10:28:06;17.73;;;9.38;;
74371;SDS011;62885;51.374;6.170;2022-08-19T10:30:32;12.63;;;8.20;;
74371;SDS011;62885;51.374;6.170;2022-08-19T10:32:58;17.40;;;9.52;;
74371;SDS011;62885;51.374;6.170;2022-08-19T10:35:24;15.32;;;8.23;;
74371;SDS011;62885;51.374;6.170;2022-08-19T10:40:24;13.43;;;7.60;;
74371;SDS011;62885;51.374;6.170;2022-08-19T10:42:50;17.58;;;8.23;;
74371;SDS011;62885;51.374;6.170;2022-08-19T10:45:15;12.82;;;7.72;;
74371;SDS011;62885;51.374;6.170;2022-08-19T10:47:41;15.98;;;7.65;;
74371;SDS011;62885;51.374;6.170;2022-08-19T10:50:06;13.90;;;7.30;;
74371;SDS011;62885;51.374;6.170;2022-08-19T10:53:07;12.02;;;7.57;;
74371;SDS011;62885;51.374;6.170;2022-08-19T10:55:34;12.43;;;6.88;;
74371;SDS011;62885;51.374;6.170;2022-08-19T10:58:18;11.90;;;7.30;;
74371;SDS011;62885;51.374;6.170;2022-08-19T11:00:55;13.50;;;6.32;;
74371;SDS011;62885;51.374;6.170;2022-08-19T11:03:22;13.55;;;7.18;;
74371;SDS011;62885;51.374;6.170;2022-08-19T11:05:58;13.60;;;6.65;;
74371;SDS011;62885;51.374;6.170;2022-08-19T11:08:27;10.85;;;6.05;;
74371;SDS011;62885;51.374;6.170;2022-08-19T11:10:53;10.48;;;5.70;;
74371;SDS011;62885;51.374;6.170;2022-08-19T11:13:22;10.75;;;6.40;;
74371;SDS011;62885;51.374;6.170;2022-08-19T11:15:55;13.80;;;7.05;;
74371;SDS011;62885;51.374;6.170;2022-08-19T11:18:21;12.80;;;6.93;;
74371;SDS011;62885;51.374;6.170;2022-08-19T11:20:47;11.40;;;6.35;;
74371;SDS011;62885;51.374;6.170;2022-08-19T11:23:12;11.30;;;6.43;;
74371;SDS011;62885;51.374;6.170;2022-08-19T11:25:38;10.38;;;5.70;;
74371;SDS011;62885;51.374;6.170;2022-08-19T11:28:03;9.75;;;5.63;;
74371;SDS011;62885;51.374;6.170;2022-08-19T11:30:29;9.52;;;6.07;;
74371;SDS011;62885;51.374;6.170;2022-08-19T11:32:55;11.32;;;5.40;;
74371;SDS011;62885;51.374;6.170;2022-08-19T11:35:20;9.70;;;5.90;;
74371;SDS011;62885;51.374;6.170;2022-08-19T11:37:48;11.32;;;6.35;;
74371;SDS011;62885;51.374;6.170;2022-08-19T11:40:13;9.07;;;5.85;;
74371;SDS011;62885;51.374;6.170;2022-08-19T11:42:39;9.88;;;5.65;;
74371;SDS011;62885;51.374;6.170;2022-08-19T11:45:25;10.60;;;5.43;;
74371;SDS011;62885;51.374;6.170;2022-08-19T11:47:52;9.93;;;5.38;;
74371;SDS011;62885;51.374;6.170;2022-08-19T11:50:18;9.18;;;5.30;;
74371;SDS011;62885;51.374;6.170;2022-08-19T11:52:44;8.75;;;5.35;;
74371;SDS011;62885;51.374;6.170;2022-08-19T11:55:11;9.25;;;5.13;;
74371;SDS011;62885;51.374;6.170;2022-08-19T11:57:38;8.07;;;4.95;;
74371;SDS011;62885;51.374;6.170;2022-08-19T12:00:05;13.95;;;5.10;;
74371;SDS011;62885;51.374;6.170;2022-08-19T12:02:32;8.75;;;4.72;;
74371;SDS011;62885;51.374;6.170;2022-08-19T12:04:58;9.07;;;5.05;;
74371;SDS011;62885;51.374;6.170;2022-08-19T12:07:23;6.72;;;4.10;;
74371;SDS011;62885;51.374;6.170;2022-08-19T12:09:49;8.68;;;5.07;;
74371;SDS011;62885;51.374;6.170;2022-08-19T12:12:15;9.52;;;4.50;;
74371;SDS011;62885;51.374;6.170;2022-08-19T12:14:41;6.65;;;4.15;;
74371;SDS011;62885;51.374;6.170;2022-08-19T12:17:06;8.27;;;4.50;;
74371;SDS011;62885;51.374;6.170;2022-08-19T12:19:35;9.10;;;4.78;;
74371;SDS011;62885;51.374;6.170;2022-08-19T12:22:01;11.70;;;5.05;;
74371;SDS011;62885;51.374;6.170;2022-08-19T12:24:29;7.13;;;4.80;;
74371;SDS011;62885;51.374;6.170;2022-08-19T12:26:57;9.23;;;5.07;;
74371;SDS011;62885;51.374;6.170;2022-08-19T12:29:23;9.30;;;6.75;;
74371;SDS011;62885;51.374;6.170;2022-08-19T12:31:52;9.77;;;6.22;;
74371;SDS011;62885;51.374;6.170;2022-08-19T12:34:18;12.13;;;7.00;;
74371;SDS011;62885;51.374;6.170;2022-08-19T12:36:44;12.25;;;6.50;;
74371;SDS011;62885;51.374;6.170;2022-08-19T12:39:10;10.90;;;7.00;;
74371;SDS011;62885;51.374;6.170;2022-08-19T12:41:35;12.60;;;6.10;;
74371;SDS011;62885;51.374;6.170;2022-08-19T12:44:01;8.60;;;5.60;;
74371;SDS011;62885;51.374;6.170;2022-08-19T12:46:27;10.85;;;6.75;;
74371;SDS011;62885;51.374;6.170;2022-08-19T12:48:52;10.32;;;5.38;;
74371;SDS011;62885;51.374;6.170;2022-08-19T12:51:19;7.32;;;4.72;;
74371;SDS011;62885;51.374;6.170;2022-08-19T12:53:45;8.25;;;5.00;;
74371;SDS011;62885;51.374;6.170;2022-08-19T12:56:12;8.13;;;4.78;;
74371;SDS011;62885;51.374;6.170;2022-08-19T12:58:39;8.10;;;4.32;;
74371;SDS011;62885;51.374;6.170;2022-08-19T13:01:12;7.07;;;3.70;;
74371;SDS011;62885;51.374;6.170;2022-08-19T13:03:39;6.85;;;4.28;;
74371;SDS011;62885;51.374;6.170;2022-08-19T13:06:05;9.05;;;4.60;;
74371;SDS011;62885;51.374;6.170;2022-08-19T13:08:31;8.57;;;4.35;;
74371;SDS011;62885;51.374;6.170;2022-08-19T13:10:57;10.90;;;5.00;;
74371;SDS011;62885;51.374;6.170;2022-08-19T13:13:23;9.40;;;4.82;;
74371;SDS011;62885;51.374;6.170;2022-08-19T13:15:51;7.57;;;4.43;;
74371;SDS011;62885;51.374;6.170;2022-08-19T13:18:16;10.15;;;4.68;;
74371;SDS011;62885;51.374;6.170;2022-08-19T13:20:41;12.07;;;4.50;;
74371;SDS011;62885;51.374;6.170;2022-08-19T13:23:07;8.70;;;4.20;;
74371;SDS011;62885;51.374;6.170;2022-08-19T13:25:33;8.35;;;5.20;;
74371;SDS011;62885;51.374;6.170;2022-08-19T13:27:59;10.40;;;5.03;;
74371;SDS011;62885;51.374;6.170;2022-08-19T13:30:25;10.18;;;5.30;;
74371;SDS011;62885;51.374;6.170;2022-08-19T13:33:09;6.85;;;4.03;;
74371;SDS011;62885;51.374;6.170;2022-08-19T13:35:43;7.93;;;5.10;;
74371;SDS011;62885;51.374;6.170;2022-08-19T13:38:11;8.80;;;5.55;;
74371;SDS011;62885;51.374;6.170;2022-08-19T13:40:38;11.35;;;5.78;;
74371;SDS011;62885;51.374;6.170;2022-08-19T13:43:05;12.40;;;6.32;;
74371;SDS011;62885;51.374;6.170;2022-08-19T13:45:31;13.88;;;6.38;;
74371;SDS011;62885;51.374;6.170;2022-08-19T13:47:59;13.27;;;6.72;;
74371;SDS011;62885;51.374;6.170;2022-08-19T13:50:26;11.30;;;6.25;;
74371;SDS011;62885;51.374;6.170;2022-08-19T13:52:54;11.68;;;7.00;;
74371;SDS011;62885;51.374;6.170;2022-08-19T13:55:20;12.05;;;6.78;;
74371;SDS011;62885;51.374;6.170;2022-08-19T13:57:49;12.35;;;7.20;;
74371;SDS011;62885;51.374;6.170;2022-08-19T14:00:16;14.38;;;7.80;;
74371;SDS011;62885;51.374;6.170;2022-08-19T14:02:44;14.63;;;8.48;;
74371;SDS011;62885;51.374;6.170;2022-08-19T14:05:12;13.02;;;7.38;;
74371;SDS011;62885;51.374;6.170;2022-08-19T14:07:39;10.27;;;6.85;;
74371;SDS011;62885;51.374;6.170;2022-08-19T14:10:05;13.05;;;7.45;;
74371;SDS011;62885;51.374;6.170;2022-08-19T14:12:32;12.20;;;7.45;;
74371;SDS011;62885;51.374;6.170;2022-08-19T14:14:58;11.70;;;7.22;;
74371;SDS011;62885;51.374;6.170;2022-08-19T14:17:24;11.93;;;8.05;;
74371;SDS011;62885;51.374;6.170;2022-08-19T14:19:49;11.35;;;7.32;;
74371;SDS011;62885;51.374;6.170;2022-08-19T14:22:20;13.40;;;6.38;;
74371;SDS011;62885;51.374;6.170;2022-08-19T14:24:46;11.38;;;6.53;;
74371;SDS011;62885;51.374;6.170;2022-08-19T14:27:12;12.40;;;7.60;;
74371;SDS011;62885;51.374;6.170;2022-08-19T14:29:37;13.95;;;9.05;;
74371;SDS011;62885;51.374;6.170;2022-08-19T14:32:02;12.20;;;7.10;;
74371;SDS011;62885;51.374;6.170;2022-08-19T14:34:28;12.80;;;7.03;;
74371;SDS011;62885;51.374;6.170;2022-08-19T14:36:53;11.07;;;6.40;;
74371;SDS011;62885;51.374;6.170;2022-08-19T14:39:19;10.00;;;5.90;;
74371;SDS011;62885;51.374;6.170;2022-08-19T14:41:45;9.43;;;5.93;;
74371;SDS011;62885;51.374;6.170;2022-08-19T14:44:10;9.98;;;6.22;;
74371;SDS011;62885;51.374;6.170;2022-08-19T14:46:37;11.38;;;6.57;;
74371;SDS011;62885;51.374;6.170;2022-08-19T14:49:03;12.95;;;6.60;;